createdAt,value
2023-02-03T00:00:48.418Z,95092.11
2023-02-03T00:03:14.807Z,95092.57
2023-02-03T00:05:41.123Z,95100.38
2023-02-03T00:08:07.459Z,95112.91
2023-02-03T00:10:33.803Z,95115.12
2023-02-03T00:13:00.156Z,95109.16
2023-02-03T00:15:26.494Z,95113.01
2023-02-03T00:17:52.847Z,95117.23
2023-02-03T00:20:19.190Z,95117.45
2023-02-03T00:22:45.575Z,95129.27
2023-02-03T00:25:11.929Z,95129.03
2023-02-03T00:27:38.294Z,95128.44
2023-02-03T00:30:04.598Z,95124.80
2023-02-03T00:32:31.024Z,95127.38
2023-02-03T00:34:57.290Z,95128.80
2023-02-03T00:37:23.630Z,95139.55
2023-02-03T00:39:50.037Z,95130.54
2023-02-03T00:42:16.354Z,95134.48
2023-02-03T00:44:42.719Z,95146.43
2023-02-03T00:47:09.045Z,95142.66
2023-02-03T00:49:35.388Z,95145.61
2023-02-03T00:52:01.742Z,95151.20
2023-02-03T00:54:28.088Z,95156.48
2023-02-03T00:56:54.435Z,95157.41
2023-02-03T00:59:20.815Z,95150.97
2023-02-03T01:01:47.166Z,95151.89
2023-02-03T01:04:13.512Z,95162.67
2023-02-03T01:06:39.861Z,95156.80
2023-02-03T01:09:06.205Z,95159.73
2023-02-03T01:11:32.560Z,95163.69
2023-02-03T01:13:58.900Z,95164.63
2023-02-03T01:16:27.669Z,95170.58
2023-02-03T01:18:51.626Z,95167.54
2023-02-03T01:21:17.997Z,95170.33
2023-02-03T01:23:44.324Z,95163.56
2023-02-03T01:26:11.892Z,95167.76
2023-02-03T01:28:37.009Z,95170.33
2023-02-03T01:31:03.504Z,95162.38
2023-02-03T01:33:29.697Z,95158.98
2023-02-03T01:35:56.042Z,95158.98
2023-02-03T01:38:22.437Z,95157.69
2023-02-03T01:40:48.786Z,95159.20
2023-02-03T01:43:15.166Z,95162.59
2023-02-03T01:45:41.558Z,95163.88
2023-02-03T01:48:07.869Z,95176.73
2023-02-03T01:50:34.211Z,95179.31
2023-02-03T01:53:00.608Z,95180.23
2023-02-03T01:55:27.034Z,95181.88
2023-02-03T01:57:53.380Z,95175.91
2023-02-03T02:00:19.760Z,95176.95
2023-02-03T02:02:46.149Z,95183.75
2023-02-03T02:05:12.430Z,95183.47
2023-02-03T02:07:38.783Z,95185.13
2023-02-03T02:10:05.129Z,95182.55
2023-02-03T02:12:31.463Z,95178.00
2023-02-03T02:14:57.811Z,95178.91
2023-02-03T02:17:24.139Z,95182.31
2023-02-03T02:19:50.485Z,95185.34
2023-02-03T02:22:16.847Z,95185.92
2023-02-03T02:24:43.185Z,95183.36
2023-02-03T02:27:09.535Z,95182.86
2023-02-03T02:29:35.879Z,95183.81
2023-02-03T02:32:02.361Z,95178.67
2023-02-03T02:34:28.601Z,95186.38
2023-02-03T02:36:54.941Z,95190.70
2023-02-03T02:39:21.287Z,95188.59
2023-02-03T02:41:47.635Z,95190.70
2023-02-03T02:44:13.984Z,95201.91
2023-02-03T02:46:40.379Z,95195.14
2023-02-03T02:49:06.677Z,95187.89
2023-02-03T02:51:33.014Z,95180.17
2023-02-03T02:53:59.362Z,95182.44
2023-02-03T02:56:25.688Z,95176.95
2023-02-03T02:58:52.039Z,95177.30
2023-02-03T03:01:18.398Z,95181.27
2023-02-03T03:03:44.715Z,95188.16
2023-02-03T03:06:11.097Z,95193.21
2023-02-03T03:08:37.441Z,95201.69
2023-02-03T03:11:03.798Z,95198.29
2023-02-03T03:13:30.181Z,95215.00
2023-02-03T03:15:56.548Z,95216.29
2023-02-03T03:18:22.888Z,95216.50
2023-02-03T03:20:49.230Z,95216.05
2023-02-03T03:23:15.565Z,95211.81
2023-02-03T03:25:41.903Z,95222.47
2023-02-03T03:28:08.292Z,95234.41
2023-02-03T03:30:34.671Z,95233.58
2023-02-03T03:33:01.909Z,95234.41
2023-02-03T03:35:27.341Z,95234.41
2023-02-03T03:37:53.682Z,95234.86
2023-02-03T03:40:20.022Z,95240.38
2023-02-03T03:42:46.360Z,95241.08
2023-02-03T03:45:12.699Z,95248.55
2023-02-03T03:47:39.066Z,95259.66
2023-02-03T03:50:05.393Z,95258.45
2023-02-03T03:52:31.753Z,95257.08
2023-02-03T03:54:58.107Z,95259.28
2023-02-03T03:57:24.440Z,95260.48
2023-02-03T03:59:50.773Z,95255.06
2023-02-03T04:02:17.163Z,95266.91
2023-02-03T04:04:43.499Z,95272.84
2023-02-03T04:07:09.849Z,95270.02
2023-02-03T04:09:36.191Z,95276.36
2023-02-03T04:12:02.570Z,95279.27
2023-02-03T04:14:28.912Z,95274.71
2023-02-03T04:16:55.258Z,95281.71
2023-02-03T04:19:21.607Z,95284.63
2023-02-03T04:21:47.986Z,95283.80
2023-02-03T04:24:14.327Z,95289.77
2023-02-03T04:26:40.677Z,95286.28
2023-02-03T04:29:07.010Z,95292.09
2023-02-03T04:31:33.406Z,95289.88
2023-02-03T04:33:59.712Z,95286.58
2023-02-03T04:36:26.047Z,95284.83
2023-02-03T04:38:52.385Z,95241.66
2023-02-03T04:41:18.743Z,95295.23
2023-02-03T04:43:45.083Z,95298.97
2023-02-03T04:46:11.498Z,95302.48
2023-02-03T04:48:37.779Z,95300.38
2023-02-03T04:51:04.115Z,95312.03
2023-02-03T04:53:30.453Z,95317.55
2023-02-03T04:55:56.794Z,95320.57
2023-02-03T04:58:23.204Z,95322.56
2023-02-03T05:00:49.564Z,95325.41
2023-02-03T05:03:16.015Z,95328.69
2023-02-03T05:05:42.297Z,95326.58
2023-02-03T05:08:08.670Z,95329.52
2023-02-03T05:10:35.007Z,95335.83
2023-02-03T05:13:01.376Z,95336.66
2023-02-03T05:15:27.728Z,95338.69
2023-02-03T05:17:54.077Z,95343.34
2023-02-03T05:20:20.410Z,95342.80
2023-02-03T05:22:46.752Z,95344.53
2023-02-03T05:25:14.125Z,95352.44
2023-02-03T05:27:40.515Z,95359.20
2023-02-03T05:30:06.825Z,95355.02
2023-02-03T05:32:33.156Z,95355.72
2023-02-03T05:34:59.611Z,95348.26
2023-02-03T05:37:25.898Z,95346.55
2023-02-03T05:39:52.245Z,95345.13
2023-02-03T05:42:19.790Z,95345.20
2023-02-03T05:44:46.159Z,95342.83
2023-02-03T05:47:11.273Z,95346.75
2023-02-03T05:49:37.631Z,95359.73
2023-02-03T05:52:03.964Z,95358.98
2023-02-03T05:54:30.329Z,95354.44
2023-02-03T05:56:56.676Z,95349.17
2023-02-03T05:59:23.019Z,95347.83
2023-02-03T06:01:49.363Z,95347.14
2023-02-03T06:04:15.748Z,95350.02
2023-02-03T06:06:42.046Z,95355.36
2023-02-03T06:09:08.404Z,95359.19
2023-02-03T06:11:34.762Z,95361.55
2023-02-03T06:14:01.101Z,95360.53
2023-02-03T06:16:27.490Z,95369.88
2023-02-03T06:18:53.797Z,95364.95
2023-02-03T06:21:20.171Z,95371.80
2023-02-03T06:23:46.539Z,95375.55
2023-02-03T06:26:12.881Z,95367.70
2023-02-03T06:28:39.222Z,95374.72
2023-02-03T06:31:05.699Z,95376.95
2023-02-03T06:33:31.980Z,95381.69
2023-02-03T06:35:58.315Z,95384.84
2023-02-03T06:38:24.660Z,95385.21
2023-02-03T06:40:51.042Z,95379.36
2023-02-03T06:43:17.379Z,95382.17
2023-02-03T06:45:43.885Z,95378.34
2023-02-03T06:48:10.146Z,95384.91
2023-02-03T06:50:36.485Z,95383.73
2023-02-03T06:53:02.827Z,95379.75
2023-02-03T06:55:29.195Z,95389.25
2023-02-03T06:57:55.564Z,95385.02
2023-02-03T07:00:21.918Z,95385.14
2023-02-03T07:02:48.402Z,95396.37
2023-02-03T07:05:14.685Z,95386.52
2023-02-03T07:07:41.030Z,95387.35
2023-02-03T07:10:07.413Z,95388.18
2023-02-03T07:12:33.780Z,95384.63
2023-02-03T07:15:01.079Z,95384.44
2023-02-03T07:17:26.500Z,95393.45
2023-02-03T07:19:52.861Z,95394.16
2023-02-03T07:22:19.210Z,95396.80
2023-02-03T07:24:45.553Z,95399.38
2023-02-03T07:27:11.916Z,95409.10
2023-02-03T07:29:38.259Z,95410.61
2023-02-03T07:32:04.729Z,95413.45
2023-02-03T07:34:30.981Z,95414.25
2023-02-03T07:36:57.332Z,95418.39
2023-02-03T07:39:23.686Z,95423.27
2023-02-03T07:41:50.036Z,95430.31
2023-02-03T07:44:16.386Z,95429.98
2023-02-03T07:46:42.832Z,95427.41
2023-02-03T07:49:09.111Z,95423.20
2023-02-03T07:51:35.469Z,95434.33
2023-02-03T07:54:01.855Z,95432.43
2023-02-03T07:56:28.188Z,95432.34
2023-02-03T07:58:54.535Z,95429.64
2023-02-03T08:01:20.935Z,95420.63
2023-02-03T08:03:47.260Z,95426.14
2023-02-03T08:06:13.630Z,95421.58
2023-02-03T08:08:39.983Z,95420.41
2023-02-03T08:11:06.331Z,95426.99
2023-02-03T08:13:32.679Z,95429.25
2023-02-03T08:15:59.132Z,95425.27
2023-02-03T08:18:25.421Z,95424.80
2023-02-03T08:20:51.768Z,95431.39
2023-02-03T08:23:18.118Z,95428.23
2023-02-03T08:25:44.531Z,95435.13
2023-02-03T08:28:10.892Z,95440.34
2023-02-03T08:30:37.199Z,95433.77
2023-02-03T08:33:03.597Z,95438.22
2023-02-03T08:35:29.981Z,95440.21
2023-02-03T08:37:56.325Z,95430.73
2023-02-03T08:40:22.689Z,95442.11
2023-02-03T08:42:49.078Z,95434.59
2023-02-03T08:45:15.452Z,95440.63
2023-02-03T08:47:41.843Z,95445.78
2023-02-03T08:50:08.234Z,95438.15
2023-02-03T08:52:34.618Z,95445.23
2023-02-03T08:55:00.973Z,95456.65
2023-02-03T08:57:27.335Z,95454.62
2023-02-03T08:59:54.684Z,95456.74
2023-02-03T09:02:20.097Z,95454.90
2023-02-03T09:04:46.519Z,95456.92
2023-02-03T09:07:12.897Z,95422.84
2023-02-03T09:09:39.253Z,95456.55
2023-02-03T09:12:05.625Z,95461.25
2023-02-03T09:14:31.968Z,95464.06
2023-02-03T09:16:58.432Z,95460.56
2023-02-03T09:19:24.706Z,95453.76
2023-02-03T09:21:51.114Z,95453.52
2023-02-03T09:24:17.433Z,95450.84
2023-02-03T09:26:43.824Z,95442.98
2023-02-03T09:29:10.170Z,95443.58
2023-02-03T09:31:36.645Z,95432.12
2023-02-03T09:34:02.984Z,95433.05
2023-02-03T09:36:29.412Z,95432.38
2023-02-03T09:38:55.740Z,95445.04
2023-02-03T09:41:22.162Z,95440.85
2023-02-03T09:43:48.614Z,95440.77
2023-02-03T09:46:15.166Z,95444.83
2023-02-03T09:48:41.476Z,95453.28
2023-02-03T09:51:07.872Z,95447.15
2023-02-03T09:53:34.211Z,95430.71
2023-02-03T09:56:00.603Z,95440.01
2023-02-03T09:58:26.989Z,95440.98
2023-02-03T10:00:53.405Z,95451.48
2023-02-03T10:03:19.709Z,95445.64
2023-02-03T10:05:46.090Z,95442.82
2023-02-03T10:08:12.496Z,95442.84
2023-02-03T10:10:38.937Z,95442.94
2023-02-03T10:13:06.483Z,95440.70
2023-02-03T10:15:31.640Z,95441.89
2023-02-03T10:17:57.979Z,95449.50
2023-02-03T10:20:24.361Z,95446.38
2023-02-03T10:22:50.735Z,95443.16
2023-02-03T10:25:17.095Z,95446.58
2023-02-03T10:27:44.069Z,95453.27
2023-02-03T10:30:10.355Z,95447.88
2023-02-03T10:32:36.711Z,95450.22
2023-02-03T10:35:03.105Z,95448.67
2023-02-03T10:37:30.477Z,95442.34
2023-02-03T10:39:55.852Z,95436.23
2023-02-03T10:42:22.210Z,95435.73
2023-02-03T10:44:48.600Z,95434.80
2023-02-03T10:47:14.970Z,95429.70
2023-02-03T10:49:43.405Z,95431.12
2023-02-03T10:52:07.706Z,95435.13
2023-02-03T10:54:34.100Z,95439.92
2023-02-03T10:57:00.431Z,95438.63
2023-02-03T10:59:26.827Z,95441.68
2023-02-03T11:01:53.218Z,95440.62
2023-02-03T11:04:19.562Z,95442.37
2023-02-03T11:06:45.902Z,95412.09
2023-02-03T11:09:12.311Z,95432.52
2023-02-03T11:11:38.679Z,95441.31
2023-02-03T11:14:05.098Z,95443.66
2023-02-03T11:16:31.448Z,95437.91
2023-02-03T11:18:57.834Z,95438.73
2023-02-03T11:21:24.219Z,95431.45
2023-02-03T11:23:50.605Z,95424.68
2023-02-03T11:26:16.966Z,95421.17
2023-02-03T11:28:43.337Z,95417.53
2023-02-03T11:31:09.783Z,95408.70
2023-02-03T11:33:36.085Z,95403.44
2023-02-03T11:36:02.475Z,95399.57
2023-02-03T11:38:28.829Z,95396.16
2023-02-03T11:40:55.395Z,95393.91
2023-02-03T11:43:21.788Z,95389.22
2023-02-03T11:45:48.140Z,95388.75
2023-02-03T11:48:14.528Z,95379.73
2023-02-03T11:50:40.879Z,95383.73
2023-02-03T11:53:07.275Z,95379.86
2023-02-03T11:55:33.635Z,95373.41
2023-02-03T11:58:02.628Z,95378.56
2023-02-03T12:00:29.279Z,95366.00
2023-02-03T12:02:55.529Z,95364.48
2023-02-03T12:05:21.757Z,95376.22
2023-02-03T12:07:48.143Z,95372.69
2023-02-03T12:10:14.537Z,95377.14
2023-02-03T12:12:40.919Z,95381.14
2023-02-03T12:15:07.268Z,95372.45
2023-02-03T12:17:33.657Z,95374.10
2023-02-03T12:20:00.023Z,95381.25
2023-02-03T12:22:26.466Z,95377.28
2023-02-03T12:24:52.838Z,95371.06
2023-02-03T12:27:19.247Z,95367.42
2023-02-03T12:29:45.579Z,95378.30
2023-02-03T12:32:12.025Z,95371.86
2023-02-03T12:34:38.325Z,95377.51
2023-02-03T12:37:04.729Z,95374.93
2023-02-03T12:39:32.707Z,95366.00
2023-02-03T12:41:57.462Z,95367.42
2023-02-03T12:44:23.854Z,95353.56
2023-02-03T12:46:50.245Z,95356.38
2023-02-03T12:49:16.603Z,95340.34
2023-02-03T12:51:42.994Z,95336.11
2023-02-03T12:54:09.370Z,95340.58
2023-02-03T12:56:35.766Z,95338.59
2023-02-03T12:59:02.158Z,95345.86
2023-02-03T13:01:28.602Z,95343.84
2023-02-03T13:03:54.846Z,95340.70
2023-02-03T13:06:21.247Z,95344.67
2023-02-03T13:08:47.581Z,95340.70
2023-02-03T13:11:15.448Z,95336.24
2023-02-03T13:13:40.337Z,95340.70
2023-02-03T13:16:06.819Z,95336.84
2023-02-03T13:18:33.167Z,95341.86
2023-02-03T13:20:59.564Z,95313.36
2023-02-03T13:23:28.428Z,95336.11
2023-02-03T13:25:54.824Z,95337.40
2023-02-03T13:28:21.208Z,95335.55
2023-02-03T13:30:47.566Z,95338.36
2023-02-03T13:33:13.908Z,95333.06
2023-02-03T13:35:41.723Z,95332.14
2023-02-03T13:38:06.644Z,95338.36
2023-02-03T13:40:33.036Z,95340.11
2023-02-03T13:42:59.434Z,95336.02
2023-02-03T13:45:25.855Z,95340.11
2023-02-03T13:47:52.210Z,95334.82
2023-02-03T13:50:18.665Z,95329.20
2023-02-03T13:52:45.057Z,95335.31
2023-02-03T13:55:11.479Z,95329.20
2023-02-03T13:57:37.832Z,95335.91
2023-02-03T14:00:04.339Z,95328.73
2023-02-03T14:02:30.799Z,95330.02
2023-02-03T14:04:57.202Z,95329.92
2023-02-03T14:07:23.508Z,95329.92
2023-02-03T14:09:49.880Z,95344.80
2023-02-03T14:12:16.239Z,95345.73
2023-02-03T14:14:42.628Z,95347.98
2023-02-03T14:17:09.069Z,95347.16
2023-02-03T14:19:36.082Z,95349.14
2023-02-03T14:22:02.480Z,95347.02
2023-02-03T14:24:28.803Z,95348.31
2023-02-03T14:26:57.294Z,95351.85
2023-02-03T14:29:22.764Z,95354.77
2023-02-03T14:31:49.204Z,95346.33
2023-02-03T14:34:14.297Z,95344.11
2023-02-03T14:36:40.635Z,95344.21
2023-02-03T14:39:07.035Z,95338.95
2023-02-03T14:41:33.378Z,95339.41
2023-02-03T14:43:59.818Z,95344.44
2023-02-03T14:46:26.133Z,95328.61
2023-02-03T14:48:52.512Z,95328.61
2023-02-03T14:51:18.899Z,95351.85
2023-02-03T14:53:45.293Z,95342.69
2023-02-03T14:56:11.609Z,95340.94
2023-02-03T14:58:38.012Z,95338.82
2023-02-03T15:01:04.493Z,95339.65
2023-02-03T15:03:30.816Z,95338.82
2023-02-03T15:05:57.144Z,95330.72
2023-02-03T15:08:23.536Z,95320.54
2023-02-03T15:10:51.077Z,95317.12
2023-02-03T15:13:16.255Z,95313.03
2023-02-03T15:15:42.609Z,95303.30
2023-02-03T15:18:08.983Z,95296.73
2023-02-03T15:20:35.338Z,95291.47
2023-02-03T15:23:01.731Z,95290.87
2023-02-03T15:25:28.378Z,95280.91
2023-02-03T15:27:54.537Z,95279.62
2023-02-03T15:30:20.844Z,95279.96
2023-02-03T15:32:47.236Z,95280.55
2023-02-03T15:35:13.571Z,95270.70
2023-02-03T15:37:39.996Z,95277.05
2023-02-03T15:40:06.491Z,95277.05
2023-02-03T15:42:32.740Z,95268.25
2023-02-03T15:44:59.118Z,95264.84
2023-02-03T15:47:25.495Z,95267.89
2023-02-03T15:49:51.887Z,95267.89
2023-02-03T15:52:18.274Z,95262.84
2023-02-03T15:54:44.655Z,95261.45
2023-02-03T15:57:11.052Z,95262.97
2023-02-03T15:59:37.404Z,95252.05
2023-02-03T16:02:03.936Z,95261.31
2023-02-03T16:04:30.142Z,95261.31
2023-02-03T16:06:56.530Z,95263.30
2023-02-03T16:09:22.872Z,95251.92
2023-02-03T16:11:49.286Z,95258.52
2023-02-03T16:14:15.625Z,95254.88
2023-02-03T16:16:58.800Z,95249.25
2023-02-03T16:19:11.403Z,95251.70
2023-02-03T16:21:37.791Z,95232.84
2023-02-03T16:24:04.137Z,95232.84
2023-02-03T16:26:30.624Z,95235.90
2023-02-03T16:28:56.996Z,95239.17
2023-02-03T16:31:23.428Z,95229.55
2023-02-03T16:33:49.714Z,95221.69
2023-02-03T16:36:16.181Z,95217.23
2023-02-03T16:38:42.518Z,95210.33
2023-02-03T16:41:08.909Z,95210.69
2023-02-03T16:43:35.257Z,95209.03
2023-02-03T16:46:01.746Z,95203.19
2023-02-03T16:48:27.992Z,95194.63
2023-02-03T16:50:54.368Z,95182.56
2023-02-03T16:53:20.720Z,95186.66
2023-02-03T16:55:47.146Z,95177.50
2023-02-03T16:58:13.476Z,95164.75
2023-02-03T17:00:39.890Z,95167.19
2023-02-03T17:03:06.199Z,95161.69
2023-02-03T17:05:32.892Z,95164.02
2023-02-03T17:08:00.143Z,95160.66
2023-02-03T17:10:26.282Z,95162.73
2023-02-03T17:12:51.697Z,95152.20
2023-02-03T17:15:18.082Z,95150.58
2023-02-03T17:17:44.431Z,95150.58
2023-02-03T17:20:10.788Z,95148.11
2023-02-03T17:22:37.286Z,95154.78
2023-02-03T17:25:03.627Z,95153.86
2023-02-03T17:27:30.015Z,95151.61
2023-02-03T17:29:56.348Z,95151.84
2023-02-03T17:32:22.743Z,95156.41
2023-02-03T17:34:49.092Z,95144.25
2023-02-03T17:37:15.474Z,95137.32
2023-02-03T17:53:22.796Z,95118.56
2023-02-03T17:55:49.155Z,95104.39
2023-02-03T17:58:15.511Z,95109.55
2023-02-03T18:00:41.856Z,95100.16
2023-02-03T18:03:08.249Z,95098.19
2023-02-03T18:05:35.789Z,95094.65
2023-02-03T18:08:06.023Z,95089.62
2023-02-03T18:10:27.464Z,95091.38
2023-02-03T18:12:53.736Z,95078.86
2023-02-03T18:15:20.112Z,95071.33
2023-02-03T18:17:46.499Z,95075.80
2023-02-03T18:20:12.831Z,95068.20
2023-02-03T18:22:39.212Z,95061.50
2023-02-03T18:25:05.558Z,95066.33
2023-02-03T18:27:31.956Z,95073.45
2023-02-03T18:29:58.284Z,95076.63
2023-02-03T18:32:24.661Z,95059.42
2023-02-03T18:34:51.006Z,95066.79
2023-02-03T18:37:17.390Z,95064.31
2023-02-03T18:39:43.732Z,95070.76
2023-02-03T18:42:10.189Z,95071.00
2023-02-03T18:44:36.541Z,95073.57
2023-02-03T18:47:02.932Z,95071.69
2023-02-03T18:49:29.274Z,95057.98
2023-02-03T18:51:55.665Z,95065.16
2023-02-03T18:54:22.000Z,95066.44
2023-02-03T18:56:48.398Z,95069.37
2023-02-03T18:59:14.746Z,95071.45
2023-02-03T19:01:41.198Z,95074.27
2023-02-03T19:04:07.466Z,95074.73
2023-02-03T19:06:33.920Z,95072.30
2023-02-03T19:09:00.262Z,95076.75
2023-02-03T19:11:26.663Z,95069.12
2023-02-03T19:13:53.005Z,95059.28
2023-02-03T19:16:19.583Z,95049.20
2023-02-03T19:18:45.876Z,95036.69
2023-02-03T19:21:12.270Z,95035.05
2023-02-03T19:23:38.653Z,95022.77
2023-02-03T19:26:05.038Z,95015.03
2023-02-03T19:28:33.087Z,95010.48
2023-02-03T19:31:06.977Z,95007.91
2023-02-03T19:33:24.107Z,95003.68
2023-02-03T19:35:50.491Z,94998.53
2023-02-03T19:38:16.883Z,94987.86
2023-02-03T19:40:43.263Z,94984.00
2023-02-03T19:43:09.605Z,94984.13
2023-02-03T19:45:36.028Z,94978.03
2023-02-03T19:48:02.371Z,94973.47
2023-02-03T19:50:29.127Z,94980.73
2023-02-03T19:52:55.192Z,94984.70
2023-02-03T19:55:21.566Z,94989.86
2023-02-03T19:57:47.916Z,94982.73
2023-02-03T20:00:14.294Z,94971.50
2023-02-03T20:02:40.646Z,94968.66
2023-02-03T20:05:07.060Z,94972.89
2023-02-03T20:07:33.370Z,94978.86
2023-02-03T20:09:59.773Z,94971.97
2023-02-03T20:12:26.111Z,94975.84
2023-02-03T20:14:52.496Z,94973.27
2023-02-03T20:17:18.845Z,94971.48
2023-02-03T20:19:45.241Z,94970.79
2023-02-03T20:22:11.581Z,94964.72
2023-02-03T20:24:37.967Z,94964.81
2023-02-03T20:27:04.312Z,94960.95
2023-02-03T20:29:30.727Z,94961.09
2023-02-03T20:31:57.139Z,94963.99
2023-02-03T20:34:23.464Z,94954.65
2023-02-03T20:36:49.808Z,94953.11
2023-02-03T20:39:16.202Z,94951.81
2023-02-03T20:41:42.547Z,94947.48
2023-02-03T20:44:08.940Z,94942.80
2023-02-03T20:46:35.305Z,94940.01
2023-02-03T20:49:01.663Z,94936.61
2023-02-03T20:51:28.011Z,94935.81
2023-02-03T20:53:54.398Z,94936.74
2023-02-03T20:56:20.745Z,94939.89
2023-02-03T20:58:47.138Z,94933.12
2023-02-03T21:01:13.509Z,94931.47
2023-02-03T21:03:39.862Z,94917.69
2023-02-03T21:06:06.241Z,94921.05
2023-02-03T21:08:32.633Z,94912.04
2023-02-03T21:10:59.011Z,94917.79
2023-02-03T21:13:25.396Z,94914.53
2023-02-03T21:15:51.742Z,94919.78
2023-02-03T21:18:18.132Z,94917.20
2023-02-03T21:20:44.476Z,94909.62
2023-02-03T21:23:10.866Z,94911.94
2023-02-03T21:25:37.197Z,94902.70
2023-02-03T21:28:03.684Z,94894.87
2023-02-03T21:30:30.339Z,94891.22
2023-02-03T21:32:56.328Z,94893.80
2023-02-03T21:35:24.059Z,94887.10
2023-02-03T21:37:49.088Z,94884.77
2023-02-03T21:40:15.426Z,94890.73
2023-02-03T21:42:41.853Z,94905.36
2023-02-03T21:45:08.152Z,94905.03
2023-02-03T21:47:34.544Z,94895.52
2023-02-03T21:50:00.886Z,94895.20
2023-02-03T21:52:27.302Z,94892.40
2023-02-03T21:54:53.666Z,94893.55
2023-02-03T21:57:20.034Z,94885.97
2023-02-03T21:59:46.383Z,94879.63
2023-02-03T22:02:12.772Z,94875.08
2023-02-03T22:04:39.106Z,94867.69
2023-02-03T22:07:05.508Z,94876.47
2023-02-03T22:09:31.861Z,94877.30
2023-02-03T22:11:59.215Z,94874.83
2023-02-03T22:14:24.620Z,94872.97
2023-02-03T22:16:51.038Z,94880.23
2023-02-03T22:19:17.396Z,94866.78
2023-02-03T22:21:43.748Z,94868.06
2023-02-03T22:24:10.121Z,94870.64
2023-02-03T22:26:36.613Z,94874.96
2023-02-03T22:29:02.943Z,94870.64
2023-02-03T22:31:29.435Z,94865.27
2023-02-03T22:33:55.680Z,94859.76
2023-02-03T22:36:22.060Z,94859.86
2023-02-03T22:38:48.400Z,94851.32
2023-02-03T22:41:14.792Z,94845.84
2023-02-03T22:43:41.146Z,94845.38
2023-02-03T22:46:07.541Z,94850.98
2023-02-03T22:48:34.941Z,94842.09
2023-02-03T22:51:00.238Z,94841.63
2023-02-03T22:53:26.578Z,94840.34
2023-02-03T22:55:52.994Z,94835.33
2023-02-03T22:58:19.335Z,94832.26
2023-02-03T23:00:45.729Z,94828.17
2023-02-03T23:03:12.097Z,94827.71
2023-02-03T23:05:38.464Z,94822.67
2023-02-03T23:08:04.807Z,94825.14
2023-02-03T23:10:31.728Z,94817.06
2023-02-03T23:12:57.540Z,94810.41
2023-02-03T23:15:23.919Z,94809.13
2023-02-03T23:17:50.256Z,94800.25
2023-02-03T23:20:16.679Z,94802.00
2023-02-03T23:22:42.985Z,94797.31
2023-02-03T23:25:09.378Z,94787.13
2023-02-03T23:27:35.710Z,94793.09
2023-02-03T23:30:02.104Z,94786.80
2023-02-03T23:32:28.486Z,94785.05
2023-02-03T23:34:54.890Z,94767.16
2023-02-03T23:37:21.219Z,94760.72
2023-02-03T23:39:47.618Z,94757.33
2023-02-03T23:42:13.987Z,94755.22
2023-02-03T23:44:40.372Z,94735.59
2023-02-03T23:47:06.743Z,94736.52
2023-02-03T23:49:33.142Z,94730.69
2023-02-03T23:51:59.492Z,94730.20
2023-02-03T23:54:25.866Z,94723.44
2023-02-03T23:56:52.202Z,94724.27
2023-02-03T23:59:18.584Z,94722.26
